^^
Station Historical Data
Daily Summary for April 29, 2017 Units:  English    Metric   Both
« Previous Day
Next Day »
Daily Weekly Monthly Yearly Custom
  High: Low: Average:
Temperature: 83.3 °F 59.0 °F 70 °F
Dew Point: 65.6 °F 52.6 °F 59.8 °F
Humidity: 94 % 48 % 72 %
Wind Speed: 13.1 mph 0.0 mph 2.3 mph
Wind Gust: 22.0 mph - -
Wind:- - WSW
Pressure: 30.13 in 29.95 in -
Precipitation: 0.17 in    
Historical Graphs
 
 
Tabular Data for April 29, 2017
Time Temperature Dew Point Pressure Wind Wind Speed Wind Gust Humidity Rainfall Rate (Hourly) solar Conditions
00:04 63.3 °F 52.6 °F 30.05 in Calm     68 % 0.00 in 0.0 W/m2 BKN
00:09 63.3 °F 52.6 °F 30.05 in Calm     68 % 0.00 in 0.0 W/m2 BKN
00:14 63.0 °F 52.7 °F 30.04 in Calm     69 % 0.00 in 0.0 W/m2 BKN
00:19 63.0 °F 53.1 °F 30.04 in Calm     70 % 0.00 in 0.0 W/m2 BKN
00:24 63.1 °F 53.2 °F 30.04 in Calm     70 % 0.00 in 0.0 W/m2 BKN
00:29 63.1 °F 53.2 °F 30.04 in Calm     70 % 0.00 in 0.0 W/m2 BKN
00:34 63.1 °F 53.2 °F 30.04 in Calm     70 % 0.00 in 0.0 W/m2 BKN
00:39 63.2 °F 53.6 °F 30.03 in Calm     71 % 0.00 in 0.0 W/m2 BKN
00:44 63.2 °F 53.6 °F 30.03 in Calm     71 % 0.00 in 0.0 W/m2 BKN
00:49 63.2 °F 53.6 °F 30.03 in Calm     71 % 0.00 in 0.0 W/m2 BKN
00:54 63.0 °F 53.4 °F 30.03 in Calm     71 % 0.00 in 0.0 W/m2 BKN
00:59 62.8 °F 53.3 °F 30.03 in Calm     71 % 0.00 in 0.0 W/m2 BKN
01:04 62.8 °F 53.3 °F 30.04 in Calm     71 % 0.00 in 0.0 W/m2 BKN
01:09 63.2 °F 53.3 °F 30.04 in Calm     70 % 0.00 in 0.0 W/m2 BKN
01:14 63.4 °F 53.0 °F 30.04 in Calm     69 % 0.00 in 0.0 W/m2 BKN
01:19 63.5 °F 53.1 °F 30.04 in Calm     69 % 0.00 in 0.0 W/m2 BKN
01:24 63.6 °F 52.8 °F 30.03 in Calm     68 % 0.00 in 0.0 W/m2 BKN
01:29 63.6 °F 53.2 °F 30.03 in Calm     69 % 0.00 in 0.0 W/m2 BKN
01:35 63.8 °F 53.4 °F 30.02 in Calm     69 % 0.00 in 0.0 W/m2 CLR
01:40 63.9 °F 53.5 °F 30.02 in Calm     69 % 0.00 in 0.0 W/m2 CLR
01:44 63.9 °F 53.5 °F 30.02 in Calm     69 % 0.00 in 0.0 W/m2 BKN
01:45 63.9 °F 53.5 °F 30.02 in Calm     69 % 0.00 in 0.0 W/m2 BKN
01:50 64.3 °F 53.9 °F 30.03 in Calm     69 % 0.00 in 0.0 W/m2 BKN
01:55 64.0 °F 53.6 °F 30.03 in Calm     69 % 0.00 in 0.0 W/m2 BKN
02:00 64.1 °F 53.7 °F 30.03 in Calm     69 % 0.00 in 0.0 W/m2 BKN
02:05 64.1 °F 53.7 °F 30.03 in Calm     69 % 0.00 in 0.0 W/m2 BKN
02:10 64.2 °F 54.2 °F 30.03 in Calm     70 % 0.00 in 0.0 W/m2 BKN
02:15 64.2 °F 54.2 °F 30.03 in Calm     70 % 0.00 in 0.0 W/m2 BKN
02:20 64.2 °F 54.2 °F 30.02 in Calm     70 % 0.00 in 0.0 W/m2 BKN
02:25 64.4 °F 54.4 °F 30.02 in Calm     70 % 0.00 in 0.0 W/m2 BKN
02:30 64.4 °F 54.4 °F 30.02 in Calm     70 % 0.00 in 0.0 W/m2 BKN
02:35 64.7 °F 54.3 °F 30.03 in Calm     69 % 0.00 in 0.0 W/m2 BKN
02:40 64.6 °F 54.2 °F 30.02 in Calm   1.0 mph 69 % 0.00 in 0.0 W/m2 BKN
02:45 64.5 °F 54.1 °F 30.03 in Calm     69 % 0.00 in 0.0 W/m2 BKN
02:50 64.6 °F 53.8 °F 30.03 in Calm     68 % 0.00 in 0.0 W/m2 BKN
02:55 64.6 °F 53.4 °F 30.03 in Calm     67 % 0.00 in 0.0 W/m2 BKN
03:00 64.8 °F 54.0 °F 30.02 in Calm   1.2 mph 68 % 0.00 in 0.0 W/m2 BKN
03:01 64.8 °F 54.0 °F 30.02 in Calm     68 % 0.00 in 0.0 W/m2 BKN
03:06 64.8 °F 54.4 °F 30.01 in Calm     69 % 0.00 in 0.0 W/m2 BKN
03:11 64.7 °F 54.7 °F 30.00 in Calm     70 % 0.00 in 0.0 W/m2 BKN
03:16 64.7 °F 55.5 °F 30.01 in Calm     72 % 0.00 in 0.0 W/m2 BKN
03:21 64.7 °F 55.5 °F 30.00 in Calm     72 % 0.00 in 0.0 W/m2 BKN
03:26 64.8 °F 55.9 °F 30.00 in Calm     73 % 0.00 in 0.0 W/m2 BKN
03:31 64.6 °F 55.7 °F 30.00 in Calm     73 % 0.00 in 0.0 W/m2 BKN
03:36 64.7 °F 56.2 °F 30.02 in Calm     74 % 0.00 in 0.0 W/m2 BKN
03:41 64.6 °F 56.9 °F 30.02 in Calm     76 % 0.00 in 0.0 W/m2 BKN
03:46 64.4 °F 57.0 °F 30.02 in SSW 1.2 mph 4.0 mph 77 % 0.03 in 0.0 W/m2 RA
03:51 63.3 °F 57.0 °F 30.01 in Calm     80 % 0.06 in 0.0 W/m2 RA
03:56 62.1 °F 56.5 °F 30.03 in SW 0.8 mph 3.5 mph 82 % 0.10 in 0.0 W/m2 RA
04:01 61.6 °F 57.0 °F 30.00 in Calm     85 % 0.16 in 0.0 W/m2 RA
04:06 61.2 °F 57.0 °F 29.98 in Calm     86 % 0.17 in 0.0 W/m2 RA
04:11 61.1 °F 57.2 °F 29.99 in Calm     87 % 0.17 in 0.0 W/m2 RA
04:16 60.7 °F 57.1 °F 29.99 in Calm     88 % 0.17 in 0.0 W/m2 BKN
04:22 60.3 °F 56.7 °F 29.98 in Calm     88 % 0.17 in 0.0 W/m2 BKN
04:27 60.0 °F 56.7 °F 29.98 in Calm     89 % 0.17 in 0.0 W/m2 BKN
04:32 59.7 °F 56.5 °F 29.99 in Calm     89 % 0.17 in 0.0 W/m2 BKN
04:37 59.6 °F 56.7 °F 29.98 in Calm     90 % 0.17 in 0.0 W/m2 BKN
04:42 59.4 °F 56.5 °F 29.97 in Calm     90 % 0.17 in 0.0 W/m2 BKN
04:47 59.3 °F 56.4 °F 29.98 in Calm     90 % 0.12 in 0.0 W/m2 BKN
04:52 59.3 °F 56.7 °F 29.98 in Calm     91 % 0.07 in 0.0 W/m2 BKN
04:57 59.3 °F 56.7 °F 29.98 in Calm     91 % 0.06 in 0.0 W/m2 BKN
05:02 59.6 °F 57.0 °F 29.98 in Calm     91 % 0.01 in 0.0 W/m2 BKN
05:07 59.5 °F 56.9 °F 29.99 in Calm     91 % 0.00 in 0.0 W/m2 BKN
05:12 59.4 °F 56.8 °F 29.99 in Calm     91 % 0.00 in 0.0 W/m2 BKN
05:17 59.5 °F 56.9 °F 29.99 in Calm     91 % 0.00 in 0.0 W/m2 BKN
05:22 59.4 °F 56.8 °F 29.99 in Calm     91 % 0.00 in 0.0 W/m2 BKN
05:27 59.6 °F 57.3 °F 29.99 in Calm     92 % 0.00 in 0.0 W/m2 BKN
05:32 59.4 °F 57.1 °F 29.98 in Calm     92 % 0.00 in 0.0 W/m2 BKN
05:37 59.3 °F 57.0 °F 29.98 in Calm     92 % 0.00 in 0.0 W/m2 BKN
05:42 59.3 °F 57.0 °F 29.99 in Calm     92 % 0.00 in 0.0 W/m2 BKN
05:47 59.1 °F 56.8 °F 29.98 in Calm     92 % 0.00 in 0.0 W/m2 BKN
05:52 59.1 °F 56.8 °F 29.99 in Calm     92 % 0.00 in 0.0 W/m2 BKN
05:57 59.2 °F 57.2 °F 29.98 in Calm     93 % 0.00 in 0.0 W/m2 BKN
06:02 59.3 °F 57.3 °F 29.98 in Calm     93 % 0.00 in 0.0 W/m2 BKN
06:07 59.1 °F 57.1 °F 29.98 in Calm     93 % 0.00 in 0.0 W/m2 BKN
06:12 59.0 °F 57.0 °F 29.97 in Calm     93 % 0.00 in 0.0 W/m2 BKN
06:17 59.1 °F 57.1 °F 29.97 in Calm     93 % 0.00 in 5.0 W/m2 BKN
06:18 59.1 °F 57.1 °F 29.97 in Calm     93 % 0.00 in 7.0 W/m2 BKN
06:23 59.2 °F 57.2 °F 29.97 in Calm     93 % 0.00 in 9.0 W/m2 BKN
06:28 59.1 °F 57.1 °F 29.96 in Calm     93 % 0.00 in 12.0 W/m2 BKN
06:33 59.3 °F 57.3 °F 29.96 in Calm     93 % 0.00 in 16.0 W/m2 BKN
06:38 59.2 °F 57.2 °F 29.96 in Calm     93 % 0.00 in 21.0 W/m2 BKN
06:43 59.4 °F 57.4 °F 29.95 in Calm     93 % 0.00 in 25.0 W/m2 BKN
06:48 59.5 °F 57.5 °F 29.96 in Calm     93 % 0.00 in 30.0 W/m2 BKN
06:53 59.5 °F 57.5 °F 29.97 in Calm     93 % 0.00 in 35.0 W/m2 BKN
06:58 59.4 °F 57.4 °F 29.96 in Calm     93 % 0.00 in 42.0 W/m2 SCT
07:03 59.8 °F 58.1 °F 29.97 in Calm     94 % 0.00 in 53.0 W/m2 SCT
07:08 59.9 °F 57.9 °F 29.97 in Calm     93 % 0.00 in 62.0 W/m2 SCT
07:13 59.8 °F 57.8 °F 29.98 in Calm     93 % 0.00 in 72.0 W/m2 SCT
07:18 60.1 °F 58.4 °F 29.98 in Calm     94 % 0.00 in 74.0 W/m2 SCT
07:23 60.2 °F 58.2 °F 29.98 in Calm     93 % 0.00 in 79.0 W/m2 SCT
07:28 60.2 °F 58.2 °F 29.99 in Calm     93 % 0.00 in 77.0 W/m2 BKN
07:33 60.5 °F 58.5 °F 29.99 in Calm     93 % 0.00 in 79.0 W/m2 BKN
07:38 60.7 °F 58.7 °F 30.00 in Calm     93 % 0.00 in 86.0 W/m2 BKN
07:43 60.9 °F 58.9 °F 30.00 in Calm     93 % 0.00 in 107.0 W/m2 BKN
07:48 61.1 °F 59.1 °F 30.01 in Calm     93 % 0.00 in 113.0 W/m2 SCT
07:53 61.2 °F 59.2 °F 30.02 in Calm     93 % 0.00 in 114.0 W/m2 BKN
07:58 61.5 °F 59.5 °F 30.02 in West 0.4 mph 2.3 mph 93 % 0.00 in 125.0 W/m2 BKN
08:03 61.8 °F 59.8 °F 30.03 in Calm     93 % 0.00 in 144.0 W/m2 SCT
08:08 61.7 °F 59.4 °F 30.03 in SSW 2.8 mph 4.6 mph 92 % 0.00 in 158.0 W/m2 SCT
08:13 61.5 °F 59.5 °F 30.04 in SW 1.4 mph 3.5 mph 93 % 0.00 in 153.0 W/m2 SCT
08:18 61.8 °F 59.8 °F 30.04 in SW 3.0 mph 4.0 mph 93 % 0.00 in 134.0 W/m2 BKN
08:23 61.9 °F 59.9 °F 30.04 in SW 1.6 mph 3.5 mph 93 % 0.00 in 134.0 W/m2 BKN
08:28 62.0 °F 59.6 °F 30.05 in Calm     92 % 0.00 in 142.0 W/m2 BKN
08:33 62.2 °F 59.8 °F 30.04 in Calm     92 % 0.00 in 172.0 W/m2 BKN
08:38 62.5 °F 60.1 °F 30.05 in Calm     92 % 0.00 in 186.0 W/m2 BKN
08:43 62.8 °F 60.4 °F 30.05 in Calm     92 % 0.00 in 192.0 W/m2 BKN
08:48 63.3 °F 60.9 °F 30.05 in SW 1.1 mph 3.5 mph 92 % 0.00 in 199.0 W/m2 BKN
08:53 63.8 °F 61.4 °F 30.05 in Calm     92 % 0.00 in 204.0 W/m2 BKN
08:58 64.4 °F 61.7 °F 30.05 in WNW 2.3 mph 3.5 mph 91 % 0.00 in 179.0 W/m2 BKN
09:03 64.6 °F 61.9 °F 30.06 in West 3.6 mph 3.6 mph 91 % 0.00 in 171.0 W/m2 BKN
09:08 64.7 °F 62.0 °F 30.06 in WSW 3.4 mph 6.9 mph 91 % 0.00 in 151.0 W/m2 BKN
09:13 64.8 °F 61.8 °F 30.06 in West 3.9 mph 8.0 mph 90 % 0.00 in 172.0 W/m2 BKN
09:18 65.0 °F 62.3 °F 30.06 in WNW 1.5 mph 6.9 mph 91 % 0.00 in 183.0 W/m2 BKN
09:24 65.4 °F 62.7 °F 30.06 in WSW 5.4 mph 8.1 mph 91 % 0.00 in 183.0 W/m2 BKN
09:29 65.6 °F 62.9 °F 30.05 in West 3.8 mph 10.4 mph 91 % 0.00 in 178.0 W/m2 BKN
09:34 65.7 °F 62.7 °F 30.05 in WSW 3.1 mph 5.8 mph 90 % 0.00 in 188.0 W/m2 BKN
09:39 65.9 °F 63.2 °F 30.06 in WSW 5.1 mph 9.2 mph 91 % 0.00 in 207.0 W/m2 BKN
09:44 66.0 °F 63.3 °F 30.05 in SW 2.6 mph 9.2 mph 91 % 0.00 in 227.0 W/m2 BKN
09:49 66.3 °F 63.3 °F 30.05 in West 1.4 mph 3.5 mph 90 % 0.00 in 253.0 W/m2 BKN
09:54 66.5 °F 63.5 °F 30.03 in WNW 3.2 mph 5.8 mph 90 % 0.00 in 306.0 W/m2 SCT
09:59 66.6 °F 63.6 °F 30.02 in NW 3.4 mph 6.9 mph 90 % 0.00 in 346.0 W/m2 SCT
10:04 67.2 °F 63.8 °F 30.01 in NW 3.1 mph 8.1 mph 89 % 0.00 in 394.0 W/m2 SCT
10:09 68.3 °F 64.6 °F 30.02 in West 4.7 mph 9.2 mph 88 % 0.00 in 403.0 W/m2 FEW
10:14 68.6 °F 64.2 °F 30.02 in WSW 4.4 mph 8.1 mph 86 % 0.00 in 380.0 W/m2 SCT
10:19 68.9 °F 64.5 °F 30.01 in WNW 0.1 mph 1.2 mph 86 % 0.00 in 439.0 W/m2 SCT
10:24 69.7 °F 65.0 °F 30.01 in Calm   2.3 mph 85 % 0.00 in 531.0 W/m2 FEW
10:29 70.9 °F 65.5 °F 30.01 in NW 3.6 mph 10.4 mph 83 % 0.00 in 503.0 W/m2 FEW
10:34 71.7 °F 65.6 °F 30.01 in WNW 7.6 mph 11.5 mph 81 % 0.00 in 436.0 W/m2 SCT
10:39 72.1 °F 65.2 °F 30.01 in NW 6.4 mph 11.0 mph 79 % 0.00 in 404.0 W/m2 SCT
10:44 72.2 °F 65.0 °F 30.01 in WNW 2.0 mph 6.9 mph 78 % 0.00 in 434.0 W/m2 SCT
10:49 72.6 °F 64.2 °F 30.01 in NW 7.2 mph 13.8 mph 75 % 0.00 in 432.0 W/m2 SCT
10:54 72.7 °F 63.5 °F 30.01 in WSW 9.1 mph 11.5 mph 73 % 0.00 in 352.0 W/m2 BKN
10:59 72.7 °F 63.5 °F 30.01 in WNW 3.6 mph 8.1 mph 73 % 0.00 in 381.0 W/m2 SCT
11:04 72.9 °F 63.7 °F 30.02 in West 2.6 mph 4.6 mph 73 % 0.00 in 338.0 W/m2 BKN
11:09 73.0 °F 63.4 °F 30.03 in West 4.6 mph 8.0 mph 72 % 0.00 in 459.0 W/m2 SCT
11:14 73.2 °F 63.6 °F 30.03 in West 8.1 mph 12.7 mph 72 % 0.00 in 580.0 W/m2 FEW
11:19 73.6 °F 63.6 °F 30.02 in WNW 3.4 mph 9.2 mph 71 % 0.00 in 534.0 W/m2 FEW
11:24 74.1 °F 63.3 °F 30.02 in NW 1.4 mph 5.8 mph 69 % 0.00 in 673.0 W/m2 CLR
11:29 74.5 °F 63.2 °F 30.02 in West 6.0 mph 10.4 mph 68 % 0.00 in 524.0 W/m2 FEW
11:34 74.6 °F 62.9 °F 30.02 in WNW 2.1 mph 5.8 mph 67 % 0.00 in 346.0 W/m2 SCT
11:39 74.2 °F 62.5 °F 30.02 in West 2.6 mph 8.1 mph 67 % 0.00 in 274.0 W/m2 BKN
11:44 73.8 °F 62.2 °F 30.01 in West 1.6 mph 5.8 mph 67 % 0.00 in 202.0 W/m2 OVC
11:49 73.7 °F 62.9 °F 30.01 in NW 0.2 mph 2.3 mph 69 % 0.00 in 220.0 W/m2 OVC
11:54 73.8 °F 62.6 °F 30.00 in Calm     68 % 0.00 in 274.0 W/m2 BKN
11:59 73.4 °F 62.6 °F 29.99 in Calm     69 % 0.00 in 320.0 W/m2 BKN
12:04 73.4 °F 62.6 °F 29.99 in West 1.2 mph 4.6 mph 69 % 0.00 in 441.0 W/m2 BKN
12:09 73.8 °F 63.0 °F 30.00 in SSW 5.0 mph 10.0 mph 69 % 0.00 in 443.0 W/m2 FEW
12:15 74.1 °F 62.9 °F 30.00 in WNW 5.3 mph 9.2 mph 68 % 0.00 in 661.0 W/m2 FEW
12:20 74.5 °F 62.8 °F 30.00 in SW 2.0 mph 5.8 mph 67 % 0.00 in 394.0 W/m2 BKN
12:25 74.6 °F 62.9 °F 30.00 in WSW 5.0 mph 12.0 mph 67 % 0.00 in 555.0 W/m2 SCT
12:30 75.2 °F 63.5 °F 29.99 in WNW 1.0 mph 5.8 mph 67 % 0.00 in 506.0 W/m2 FEW
12:35 75.7 °F 63.1 °F 29.99 in West 7.0 mph 13.0 mph 65 % 0.00 in 577.0 W/m2 SCT
12:40 75.9 °F 63.3 °F 29.99 in West 1.0 mph 9.0 mph 65 % 0.00 in 747.0 W/m2 FEW
12:45 76.3 °F 62.8 °F 30.00 in SW 3.6 mph 10.0 mph 63 % 0.00 in 835.0 W/m2 CLR
12:50 76.3 °F 63.2 °F 29.99 in WSW 2.0 mph 4.6 mph 64 % 0.00 in 682.0 W/m2 FEW
12:55 76.4 °F 63.3 °F 30.00 in WNW 5.7 mph 11.5 mph 64 % 0.00 in 510.0 W/m2 SCT
13:00 76.2 °F 63.1 °F 30.00 in West 8.4 mph 11.5 mph 64 % 0.00 in 527.0 W/m2 SCT
13:05 76.1 °F 63.5 °F 30.00 in WSW 3.4 mph 8.1 mph 65 % 0.00 in 485.0 W/m2 SCT
13:10 76.6 °F 64.0 °F 30.00 in West 2.3 mph 9.2 mph 65 % 0.00 in 703.0 W/m2 FEW
13:15 77.2 °F 64.5 °F 30.00 in WSW 1.2 mph 5.8 mph 65 % 0.00 in 800.0 W/m2 CLR
13:20 77.1 °F 64.0 °F 30.00 in SW 6.4 mph 10.4 mph 64 % 0.00 in 680.0 W/m2 CLR
13:25 77.0 °F 63.4 °F 30.00 in WSW 7.7 mph 11.5 mph 63 % 0.00 in 568.0 W/m2 SCT
13:30 77.5 °F 64.4 °F 30.00 in SSW 5.4 mph 12.7 mph 64 % 0.00 in 740.0 W/m2 FEW
13:35 77.8 °F 64.2 °F 30.00 in SSW 7.2 mph 10.4 mph 63 % 0.00 in 900.0 W/m2 CLR
13:40 78.1 °F 63.6 °F 30.01 in SSW 9.4 mph 12.7 mph 61 % 0.00 in 835.0 W/m2 CLR
13:45 77.9 °F 63.4 °F 30.01 in WSW 4.7 mph 11.5 mph 61 % 0.00 in 837.0 W/m2 CLR
13:50 78.4 °F 63.8 °F 30.01 in WSW 8.5 mph 12.7 mph 61 % 0.00 in 800.0 W/m2 CLR
13:55 78.5 °F 63.9 °F 30.01 in WNW 5.6 mph 9.2 mph 61 % 0.00 in 893.0 W/m2 CLR
14:00 79.0 °F 64.4 °F 30.01 in WSW 3.2 mph 6.9 mph 61 % 0.00 in 802.0 W/m2 CLR
14:01 79.0 °F 64.4 °F 30.01 in West 1.9 mph 8.0 mph 61 % 0.00 in 742.0 W/m2 CLR
14:06 79.3 °F 63.7 °F 30.01 in WSW 9.7 mph 15.0 mph 59 % 0.00 in 793.0 W/m2 CLR
14:11 79.5 °F 63.9 °F 30.01 in SW 5.6 mph 10.4 mph 59 % 0.00 in 824.0 W/m2 CLR
14:17 80.3 °F 64.2 °F 30.02 in WSW 3.4 mph 11.5 mph 58 % 0.00 in 719.0 W/m2 CLR
14:22 80.3 °F 63.7 °F 30.02 in WSW 5.4 mph 11.0 mph 57 % 0.00 in 742.0 W/m2 CLR
14:27 80.4 °F 63.3 °F 30.02 in WSW 3.3 mph 10.4 mph 56 % 0.00 in 740.0 W/m2 CLR
14:32 81.1 °F 63.9 °F 30.02 in WSW 5.5 mph 11.5 mph 56 % 0.00 in 696.0 W/m2 CLR
14:37 80.7 °F 63.5 °F 30.02 in WSW 5.4 mph 12.7 mph 56 % 0.00 in 594.0 W/m2 FEW
14:42 80.5 °F 63.4 °F 30.02 in WSW 9.8 mph 11.5 mph 56 % 0.00 in 524.0 W/m2 FEW
14:47 81.0 °F 63.3 °F 30.02 in WSW 5.3 mph 12.7 mph 55 % 0.00 in 613.0 W/m2 FEW
14:52 81.7 °F 62.4 °F 30.02 in SW 6.0 mph 12.7 mph 52 % 0.00 in 578.0 W/m2 FEW
14:57 81.9 °F 61.4 °F 30.03 in West 9.0 mph 16.1 mph 50 % 0.00 in 508.0 W/m2 FEW
15:02 81.9 °F 60.9 °F 30.03 in WNW 10.4 mph 17.3 mph 49 % 0.00 in 603.0 W/m2 CLR
15:07 82.2 °F 61.7 °F 30.03 in West 10.3 mph 17.3 mph 50 % 0.00 in 740.0 W/m2 CLR
15:12 82.8 °F 62.3 °F 30.03 in West 7.7 mph 12.0 mph 50 % 0.00 in 710.0 W/m2 CLR
15:17 82.8 °F 62.3 °F 30.04 in NW 3.6 mph 8.1 mph 50 % 0.00 in 733.0 W/m2 CLR
15:22 83.1 °F 62.0 °F 30.04 in West 9.9 mph 16.1 mph 49 % 0.00 in 686.0 W/m2 CLR
15:27 83.3 °F 61.6 °F 30.04 in West 7.5 mph 17.3 mph 48 % 0.00 in 629.0 W/m2 FEW
15:32 82.4 °F 61.9 °F 30.04 in WNW 10.6 mph 18.4 mph 50 % 0.00 in 387.0 W/m2 BKN
15:37 82.3 °F 62.4 °F 30.03 in WNW 9.5 mph 22.0 mph 51 % 0.00 in 446.0 W/m2 FEW
15:42 82.1 °F 62.2 °F 30.03 in West 5.0 mph 10.4 mph 51 % 0.00 in 255.0 W/m2 BKN
15:47 81.5 °F 62.2 °F 30.04 in West 8.2 mph 19.6 mph 52 % 0.00 in 436.0 W/m2 SCT
15:52 81.5 °F 62.2 °F 30.04 in NW 8.0 mph 14.0 mph 52 % 0.00 in 561.0 W/m2 FEW
15:57 81.9 °F 62.5 °F 30.04 in WNW 9.5 mph 18.0 mph 52 % 0.00 in 596.0 W/m2 CLR
16:02 81.9 °F 63.1 °F 30.04 in NW 11.4 mph 19.6 mph 53 % 0.00 in 517.0 W/m2 CLR
16:07 81.6 °F 62.8 °F 30.04 in NW 13.1 mph 17.3 mph 53 % 0.00 in 545.0 W/m2 SCT
16:12 80.4 °F 62.8 °F 30.04 in NW 11.5 mph 18.4 mph 55 % 0.00 in 302.0 W/m2 BKN
16:17 79.7 °F 62.6 °F 30.04 in WNW 12.6 mph 19.6 mph 56 % 0.00 in 369.0 W/m2 SCT
16:22 79.5 °F 62.9 °F 30.04 in WNW 6.0 mph 11.5 mph 57 % 0.00 in 383.0 W/m2 FEW
16:24 79.8 °F 63.2 °F 30.04 in NW 4.7 mph 10.4 mph 57 % 0.00 in 357.0 W/m2 SCT
16:29 80.1 °F 63.0 °F 30.04 in NW 10.1 mph 16.1 mph 56 % 0.00 in 478.0 W/m2 FEW
16:34 80.2 °F 63.1 °F 30.04 in NW 6.3 mph 11.5 mph 56 % 0.00 in 545.0 W/m2 CLR
16:39 80.5 °F 62.3 °F 30.04 in NNW 10.4 mph 18.4 mph 54 % 0.00 in 448.0 W/m2 CLR
16:44 80.8 °F 63.1 °F 30.04 in NW 5.0 mph 8.1 mph 55 % 0.00 in 436.0 W/m2 FEW
16:49 80.8 °F 62.6 °F 30.03 in West 4.9 mph 12.7 mph 54 % 0.00 in 353.0 W/m2 FEW
16:54 80.4 °F 62.8 °F 30.03 in NW 6.7 mph 11.5 mph 55 % 0.00 in 302.0 W/m2 SCT
16:59 80.1 °F 62.5 °F 30.03 in WNW 6.8 mph 10.4 mph 55 % 0.00 in 299.0 W/m2 SCT
17:04 79.9 °F 61.8 °F 30.02 in WNW 7.4 mph 11.5 mph 54 % 0.00 in 350.0 W/m2 FEW
17:09 80.0 °F 61.9 °F 30.02 in NW 10.0 mph 16.0 mph 54 % 0.00 in 288.0 W/m2 FEW
17:14 79.8 °F 61.7 °F 30.02 in NW 6.9 mph 15.0 mph 54 % 0.00 in 232.0 W/m2 SCT
17:19 79.7 °F 61.6 °F 30.01 in NW 4.8 mph 11.5 mph 54 % 0.00 in 237.0 W/m2 SCT
17:24 79.7 °F 61.6 °F 30.02 in West 8.2 mph 13.0 mph 54 % 0.00 in 264.0 W/m2 SCT
17:29 79.6 °F 62.0 °F 30.02 in NW 7.9 mph 10.0 mph 55 % 0.00 in 301.0 W/m2 FEW
17:35 80.0 °F 62.4 °F 30.02 in NW 4.3 mph 9.2 mph 55 % 0.00 in 338.0 W/m2 CLR
17:40 80.4 °F 62.2 °F 30.02 in WNW 3.0 mph 9.0 mph 54 % 0.00 in 397.0 W/m2 CLR
17:45 80.6 °F 62.4 °F 30.02 in West 0.7 mph 6.9 mph 54 % 0.00 in 385.0 W/m2 CLR
17:50 80.7 °F 62.5 °F 30.02 in West 6.0 mph 8.0 mph 54 % 0.00 in 360.0 W/m2 CLR
17:55 80.9 °F 62.7 °F 30.02 in West 1.0 mph 12.0 mph 54 % 0.00 in 322.0 W/m2 CLR
18:00 80.6 °F 61.9 °F 30.02 in SSW 4.2 mph 8.1 mph 53 % 0.00 in 244.0 W/m2 CLR
18:05 80.3 °F 62.1 °F 30.02 in West 5.0 mph 15.0 mph 54 % 0.00 in 169.0 W/m2 SCT
18:10 79.9 °F 61.7 °F 30.02 in West 6.0 mph 15.0 mph 54 % 0.00 in 139.0 W/m2 BKN
18:15 79.6 °F 62.0 °F 30.02 in West 3.9 mph 8.1 mph 55 % 0.00 in 120.0 W/m2 SCT
18:20 79.4 °F 61.8 °F 30.02 in West 5.5 mph 9.2 mph 55 % 0.00 in 118.0 W/m2 FEW
18:25 79.3 °F 61.7 °F 30.02 in West 4.5 mph 6.9 mph 55 % 0.00 in 114.0 W/m2 SCT
18:30 79.1 °F 62.1 °F 30.02 in WSW 3.3 mph 6.9 mph 56 % 0.00 in 107.0 W/m2 SCT
18:35 79.0 °F 62.0 °F 30.02 in West 3.2 mph 5.8 mph 56 % 0.00 in 114.0 W/m2 SCT
18:40 79.1 °F 62.6 °F 30.02 in WSW 2.1 mph 6.9 mph 57 % 0.00 in 151.0 W/m2 FEW
18:45 79.1 °F 62.6 °F 30.02 in SW 1.1 mph 3.5 mph 57 % 0.00 in 139.0 W/m2 CLR
18:50 79.1 °F 62.6 °F 30.02 in Calm     57 % 0.00 in 95.0 W/m2 FEW
18:55 78.9 °F 62.4 °F 30.02 in Calm     57 % 0.00 in 97.0 W/m2 FEW
19:00 78.8 °F 62.8 °F 30.02 in WSW 0.1 mph 1.2 mph 58 % 0.00 in 74.0 W/m2 SCT
19:05 78.7 °F 62.7 °F 30.01 in Calm     58 % 0.00 in 58.0 W/m2 SCT
19:10 78.4 °F 62.4 °F 30.02 in Calm     58 % 0.00 in 54.0 W/m2 SCT
19:15 78.2 °F 62.7 °F 30.01 in Calm     59 % 0.00 in 49.0 W/m2 SCT
19:20 78.1 °F 62.6 °F 30.02 in WSW 0.1 mph 1.2 mph 59 % 0.00 in 46.0 W/m2 SCT
19:25 78.0 °F 62.5 °F 30.02 in Calm     59 % 0.00 in 37.0 W/m2 SCT
19:30 77.8 °F 62.8 °F 30.02 in Calm     60 % 0.00 in 30.0 W/m2 SCT
19:35 77.6 °F 62.6 °F 30.02 in Calm     60 % 0.00 in 21.0 W/m2 SCT
19:40 77.3 °F 62.8 °F 30.02 in Calm   1.2 mph 61 % 0.00 in 16.0 W/m2 SCT
19:45 77.2 °F 62.2 °F 30.03 in WSW 0.4 mph 4.0 mph 60 % 0.00 in 11.0 W/m2 SCT
19:50 77.0 °F 62.0 °F 30.03 in WSW 0.1 mph 1.2 mph 60 % 0.00 in 7.0 W/m2 SCT
19:55 76.8 °F 61.4 °F 30.03 in WSW 0.4 mph 3.5 mph 59 % 0.00 in 5.0 W/m2 SCT
20:00 76.7 °F 60.8 °F 30.03 in West 2.1 mph 7.0 mph 58 % 0.00 in 0.0 W/m2 SCT
20:05 76.5 °F 60.1 °F 30.04 in WSW 4.1 mph 9.0 mph 57 % 0.00 in 0.0 W/m2 SCT
20:10 76.4 °F 60.0 °F 30.04 in West 0.6 mph 3.0 mph 57 % 0.00 in 0.0 W/m2 SCT
20:15 76.2 °F 59.9 °F 30.04 in West 0.9 mph 8.0 mph 57 % 0.00 in 0.0 W/m2 SCT
20:20 76.0 °F 59.7 °F 30.05 in WNW 1.0 mph 8.0 mph 57 % 0.00 in 0.0 W/m2 SCT
20:25 75.9 °F 59.6 °F 30.05 in West 1.3 mph 3.5 mph 57 % 0.00 in 0.0 W/m2 SCT
20:30 75.7 °F 59.4 °F 30.06 in WNW 1.1 mph 3.5 mph 57 % 0.00 in 0.0 W/m2 SCT
20:35 75.5 °F 59.7 °F 30.06 in Calm     58 % 0.00 in 0.0 W/m2 SCT
20:40 75.1 °F 59.3 °F 30.06 in Calm     58 % 0.00 in 0.0 W/m2 SCT
20:45 74.8 °F 59.5 °F 30.07 in WNW 0.1 mph   59 % 0.00 in 0.0 W/m2 SCT
20:50 74.5 °F 59.2 °F 30.06 in Calm     59 % 0.00 in 0.0 W/m2 SCT
20:55 74.6 °F 59.3 °F 30.07 in West 0.3 mph 2.0 mph 59 % 0.00 in 0.0 W/m2 SCT
21:00 74.8 °F 59.5 °F 30.07 in Calm     59 % 0.00 in 0.0 W/m2 SCT
21:05 74.5 °F 59.2 °F 30.08 in Calm     59 % 0.00 in 0.0 W/m2 SCT
21:10 73.7 °F 59.9 °F 30.08 in North 0.6 mph   62 % 0.00 in 0.0 W/m2 SCT
21:15 73.3 °F 60.8 °F 30.08 in NNW 4.8 mph 9.2 mph 65 % 0.00 in 0.0 W/m2 SCT
21:17 73.1 °F 61.1 °F 30.09 in NNW 0.1 mph 1.2 mph 66 % 0.00 in 0.0 W/m2 SCT
21:22 72.5 °F 61.3 °F 30.09 in NNW 1.4 mph 9.2 mph 68 % 0.00 in 0.0 W/m2 SCT
21:27 71.9 °F 61.2 °F 30.09 in NW 1.2 mph 4.6 mph 69 % 0.00 in 0.0 W/m2 SCT
21:32 71.6 °F 61.3 °F 30.09 in NNW 2.3 mph 8.0 mph 70 % 0.00 in 0.0 W/m2 SCT
21:37 71.3 °F 61.4 °F 30.09 in NNW 0.6 mph 3.5 mph 71 % 0.00 in 0.0 W/m2 SCT
21:42 71.0 °F 61.1 °F 30.09 in NNW 1.4 mph 8.1 mph 71 % 0.00 in 0.0 W/m2 SCT
21:47 70.8 °F 61.3 °F 30.09 in NNW 0.8 mph 4.6 mph 72 % 0.00 in 0.0 W/m2 SCT
21:52 70.5 °F 61.0 °F 30.09 in NNW 1.3 mph 5.0 mph 72 % 0.00 in 0.0 W/m2 SCT
21:57 70.4 °F 61.3 °F 30.09 in Calm     73 % 0.00 in 0.0 W/m2 SCT
22:02 70.2 °F 61.1 °F 30.10 in NNE 3.8 mph 6.9 mph 73 % 0.00 in 0.0 W/m2 SCT
22:07 69.8 °F 60.4 °F 30.11 in North 1.0 mph 3.5 mph 72 % 0.00 in 0.0 W/m2 SCT
22:12 69.3 °F 59.9 °F 30.11 in NNE 3.5 mph 9.0 mph 72 % 0.00 in 0.0 W/m2 SCT
22:17 68.8 °F 59.0 °F 30.11 in North 1.8 mph 5.8 mph 71 % 0.00 in 0.0 W/m2 SCT
22:22 68.4 °F 59.0 °F 30.11 in North 1.7 mph 3.5 mph 72 % 0.00 in 0.0 W/m2 SCT
22:23 68.4 °F 59.0 °F 30.11 in North 1.8 mph 3.5 mph 72 % 0.00 in 0.0 W/m2 SCT
22:28 68.0 °F 58.6 °F 30.11 in Calm     72 % 0.00 in 0.0 W/m2 SCT
22:33 67.6 °F 58.2 °F 30.11 in NNW 0.1 mph 1.2 mph 72 % 0.00 in 0.0 W/m2 SCT
22:38 67.4 °F 58.1 °F 30.11 in Calm     72 % 0.00 in 0.0 W/m2 SCT
22:43 67.2 °F 58.2 °F 30.12 in NNW 0.2 mph 2.3 mph 73 % 0.00 in 0.0 W/m2 SCT
22:48 67.0 °F 58.1 °F 30.12 in Calm     73 % 0.00 in 0.0 W/m2 SCT
22:53 66.8 °F 58.2 °F 30.12 in Calm     74 % 0.00 in 0.0 W/m2 SCT
22:58 66.6 °F 58.1 °F 30.12 in Calm     74 % 0.00 in 0.0 W/m2 SCT
23:03 66.3 °F 57.8 °F 30.12 in Calm     74 % 0.00 in 0.0 W/m2 SCT
23:08 66.0 °F 57.8 °F 30.12 in North 0.1 mph 2.3 mph 75 % 0.00 in 0.0 W/m2 SCT
23:13 65.9 °F 57.7 °F 30.13 in Calm     75 % 0.00 in 0.0 W/m2 SCT
23:18 65.8 °F 57.7 °F 30.13 in NE 0.1 mph 1.2 mph 75 % 0.00 in 0.0 W/m2 SCT
23:23 65.6 °F 57.5 °F 30.13 in NNE 1.2 mph 3.5 mph 75 % 0.00 in 0.0 W/m2 SCT
23:28 65.3 °F 57.2 °F 30.13 in NNE 1.8 mph 3.5 mph 75 % 0.00 in 0.0 W/m2 SCT
23:33 65.1 °F 57.0 °F 30.13 in NNE 0.8 mph 3.5 mph 75 % 0.00 in 0.0 W/m2 SCT
23:38 65.0 °F 56.9 °F 30.13 in NNE 0.2 mph 1.2 mph 75 % 0.00 in 0.0 W/m2 SCT
23:43 64.9 °F 56.8 °F 30.13 in Calm     75 % 0.00 in 0.0 W/m2 SCT
23:48 64.7 °F 56.6 °F 30.13 in NNE 0.1 mph 1.2 mph 75 % 0.00 in 0.0 W/m2 SCT
23:53 64.5 °F 56.8 °F 30.13 in NE 2.7 mph 4.6 mph 76 % 0.00 in 0.0 W/m2 SCT
23:58 64.3 °F 56.6 °F 30.13 in NNE 1.6 mph 3.5 mph 76 % 0.00 in 0.0 W/m2 SCT
Air Products Campus Weather
Compliments of Weather Underground - 3.5 mb